createdAt,value
2023-03-26T00:02:07.183Z,31.73
2023-03-26T00:05:11.415Z,32.15
2023-03-26T00:08:16.221Z,31.13
2023-03-26T00:11:27.283Z,31.45
2023-03-26T00:14:32.993Z,29.67
2023-03-26T00:17:36.894Z,30.88
2023-03-26T00:20:42.298Z,33.42
2023-03-26T00:23:46.206Z,34.78
2023-03-26T00:27:00.409Z,37.33
2023-03-26T00:30:07.562Z,36.10
2023-03-26T00:33:13.261Z,37.80
2023-03-26T00:36:20.727Z,38.53
2023-03-26T00:39:26.362Z,40.00
2023-03-26T00:42:32.131Z,38.03
2023-03-26T00:45:35.732Z,40.70
2023-03-26T00:48:45.784Z,36.08
2023-03-26T00:51:55.201Z,40.50
2023-03-26T00:54:58.834Z,35.30
2023-03-26T00:58:03.929Z,32.97
2023-03-26T01:01:11.284Z,20.45
2023-03-26T01:04:35.427Z,21.60
2023-03-26T01:07:52.466Z,22.58
2023-03-26T01:11:03.858Z,17.20
2023-03-26T01:15:04.049Z,16.02
2023-03-26T01:18:10.697Z,17.08
2023-03-26T01:21:15.301Z,14.57
2023-03-26T01:24:18.894Z,11.80
2023-03-26T01:27:41.710Z,13.27
2023-03-26T01:31:14.562Z,12.70
2023-03-26T01:34:50.438Z,12.85
2023-03-26T01:38:23.762Z,10.52
2023-03-26T01:41:47.500Z,7.05
2023-03-26T01:45:04.451Z,7.50
2023-03-26T01:48:13.863Z,9.73
2023-03-26T01:51:35.234Z,8.63
2023-03-26T01:54:42.161Z,5.97
2023-03-26T01:58:40.993Z,4.00
2023-03-26T02:02:05.821Z,4.88
2023-03-26T02:05:22.387Z,4.53
2023-03-26T02:08:38.714Z,4.53
2023-03-26T02:12:45.951Z,4.18
2023-03-26T02:15:58.368Z,3.67
2023-03-26T02:19:07.264Z,3.13
2023-03-26T02:22:13.470Z,3.90
2023-03-26T02:25:26.964Z,3.50
2023-03-26T02:28:47.899Z,3.65
2023-03-26T02:31:55.226Z,3.38
2023-03-26T02:35:20.329Z,4.00
2023-03-26T02:38:28.066Z,3.08
2023-03-26T02:41:35.300Z,3.15
2023-03-26T02:44:48.861Z,3.55
2023-03-26T02:48:01.930Z,4.00
2023-03-26T02:52:21.719Z,3.50
2023-03-26T02:55:27.056Z,3.75
2023-03-26T02:58:34.202Z,6.72
2023-03-26T03:01:43.622Z,3.70
2023-03-26T03:05:10.121Z,3.13
2023-03-26T03:08:14.432Z,2.55
2023-03-26T03:11:34.028Z,2.50
2023-03-26T03:14:40.105Z,3.42
2023-03-26T03:18:16.288Z,3.22
2023-03-26T03:21:30.404Z,4.07
2023-03-26T03:24:44.829Z,3.72
2023-03-26T03:27:51.495Z,3.30
2023-03-26T03:30:54.968Z,3.42
2023-03-26T03:34:05.527Z,4.72
2023-03-26T03:37:13.321Z,3.33
2023-03-26T03:40:26.449Z,3.30
2023-03-26T03:43:30.384Z,3.45
2023-03-26T03:51:33.461Z,1.85
2023-03-26T03:58:31.670Z,3.47
2023-03-26T04:01:56.706Z,2.83
2023-03-26T04:05:29.221Z,2.95
2023-03-26T04:08:34.596Z,3.20
2023-03-26T04:11:38.406Z,2.38
2023-03-26T04:15:03.114Z,3.22
2023-03-26T04:18:11.171Z,3.85
2023-03-26T04:21:17.664Z,2.97
2023-03-26T04:24:23.075Z,3.15
2023-03-26T04:27:46.429Z,3.50
2023-03-26T04:31:19.577Z,2.35
2023-03-26T04:34:24.931Z,1.63
2023-03-26T04:37:48.236Z,3.10
2023-03-26T04:41:02.129Z,2.60
2023-03-26T04:44:31.106Z,1.98
2023-03-26T04:47:39.691Z,2.58
2023-03-26T04:50:46.241Z,3.58
2023-03-26T04:53:59.010Z,2.50
2023-03-26T04:57:10.452Z,2.50
2023-03-26T05:00:22.237Z,2.25
2023-03-26T05:03:33.204Z,2.40
2023-03-26T05:06:43.633Z,2.55
2023-03-26T05:10:04.416Z,2.00
2023-03-26T05:13:28.095Z,1.95
2023-03-26T05:16:34.486Z,1.40
2023-03-26T05:19:43.430Z,1.73
2023-03-26T05:22:47.290Z,2.30
2023-03-26T05:25:56.152Z,3.22
2023-03-26T05:29:03.699Z,4.05
2023-03-26T05:32:13.493Z,3.28
2023-03-26T05:35:17.955Z,2.47
2023-03-26T05:38:22.298Z,2.70
2023-03-26T05:41:26.225Z,2.40
2023-03-26T05:44:29.718Z,2.15
2023-03-26T05:50:58.358Z,1.25
2023-03-26T05:54:04.766Z,2.30
2023-03-26T05:57:38.501Z,1.63
2023-03-26T06:01:20.291Z,1.83
2023-03-26T06:04:49.893Z,1.70
2023-03-26T06:08:18.410Z,2.40
2023-03-26T06:11:27.583Z,1.73
2023-03-26T06:14:31.453Z,1.85
2023-03-26T06:21:12.980Z,1.92
2023-03-26T06:24:22.552Z,2.65
2023-03-26T06:27:54.721Z,3.05
2023-03-26T06:31:28.001Z,2.08
2023-03-26T06:34:47.881Z,2.45
2023-03-26T06:37:51.358Z,1.80
2023-03-26T06:40:55.248Z,1.40
2023-03-26T06:43:58.813Z,2.25
2023-03-26T06:47:20.624Z,1.95
2023-03-26T06:53:54.042Z,1.73
2023-03-26T06:57:36.427Z,2.13
2023-03-26T07:01:12.104Z,1.65
2023-03-26T07:04:34.032Z,1.67
2023-03-26T07:08:16.744Z,2.10
2023-03-26T07:11:58.609Z,2.00
2023-03-26T07:15:33.537Z,2.20
2023-03-26T07:18:55.085Z,2.58
2023-03-26T07:22:42.671Z,2.20
2023-03-26T07:25:53.704Z,2.20
2023-03-26T07:29:51.134Z,3.00
2023-03-26T07:33:26.985Z,2.42
2023-03-26T07:37:11.982Z,2.08
2023-03-26T07:41:08.578Z,2.50
2023-03-26T07:45:09.430Z,3.13
2023-03-26T07:48:44.243Z,3.40
2023-03-26T07:51:52.457Z,3.78
2023-03-26T07:55:18.044Z,3.55
2023-03-26T07:59:05.640Z,3.70
2023-03-26T08:02:43.634Z,4.30
2023-03-26T08:06:37.408Z,2.28
2023-03-26T08:10:17.153Z,3.05
2023-03-26T08:14:29.434Z,3.13
2023-03-26T08:17:32.883Z,3.42
2023-03-26T08:20:54.347Z,3.85
2023-03-26T08:24:09.006Z,4.43
2023-03-26T08:27:15.997Z,5.05
2023-03-26T08:30:23.129Z,3.40
2023-03-26T08:33:28.808Z,5.30
2023-03-26T08:36:32.458Z,4.10
2023-03-26T08:39:35.795Z,2.10
2023-03-26T08:43:02.434Z,3.00
2023-03-26T08:46:28.686Z,3.20
2023-03-26T08:50:09.844Z,3.28
2023-03-26T08:53:54.531Z,2.20
2023-03-26T08:57:10.091Z,2.60
2023-03-26T09:00:46.786Z,3.90
2023-03-26T09:03:53.635Z,3.25
2023-03-26T09:07:29.170Z,4.90
2023-03-26T09:10:50.933Z,5.97
2023-03-26T09:14:15.234Z,4.35
2023-03-26T09:17:45.724Z,2.90
2023-03-26T09:21:08.854Z,3.50
2023-03-26T09:24:23.327Z,3.25
2023-03-26T09:27:59.463Z,7.18
2023-03-26T09:31:37.298Z,6.00
2023-03-26T09:34:58.977Z,7.35
2023-03-26T09:38:38.541Z,6.65
2023-03-26T09:41:50.560Z,8.95
2023-03-26T09:45:15.069Z,8.85
2023-03-26T09:48:24.604Z,10.30
2023-03-26T09:52:02.212Z,9.38
2023-03-26T09:55:27.343Z,8.32
2023-03-26T09:58:46.152Z,7.53
2023-03-26T10:02:17.484Z,5.70
2023-03-26T10:05:36.301Z,6.38
2023-03-26T10:11:58.793Z,7.65
2023-03-26T10:15:26.665Z,8.10
2023-03-26T10:19:01.282Z,6.50
2023-03-26T10:22:28.932Z,6.80
2023-03-26T10:26:06.768Z,7.38
2023-03-26T10:29:22.373Z,7.60
2023-03-26T10:32:55.187Z,9.70
2023-03-26T10:36:15.308Z,8.38
2023-03-26T10:39:37.793Z,8.20
2023-03-26T10:43:03.591Z,8.25
2023-03-26T10:46:56.733Z,9.63
2023-03-26T10:50:31.553Z,9.63
2023-03-26T10:53:54.736Z,9.15
2023-03-26T10:57:14.445Z,11.18
2023-03-26T11:00:43.272Z,9.75
2023-03-26T11:04:12.351Z,10.55
2023-03-26T11:07:30.450Z,12.90
2023-03-26T11:10:48.850Z,14.45
2023-03-26T11:14:35.232Z,14.55
2023-03-26T11:18:24.490Z,15.57
2023-03-26T11:21:38.136Z,13.90
2023-03-26T11:25:08.615Z,14.50
2023-03-26T11:29:03.115Z,20.55
2023-03-26T11:32:18.633Z,20.98
2023-03-26T11:39:14.819Z,28.58
2023-03-26T11:42:22.705Z,25.45
2023-03-26T11:45:58.163Z,26.73
2023-03-26T11:49:07.436Z,27.33
2023-03-26T11:52:15.963Z,26.10
2023-03-26T11:55:26.507Z,22.75
2023-03-26T11:58:44.471Z,24.15
2023-03-26T12:01:53.692Z,25.27
2023-03-26T12:05:32.074Z,27.08
2023-03-26T12:09:02.062Z,28.45
2023-03-26T12:12:12.342Z,24.65
2023-03-26T12:15:25.669Z,24.08
2023-03-26T12:18:32.737Z,22.45
2023-03-26T12:22:01.488Z,24.48
2023-03-26T12:25:18.133Z,22.77
2023-03-26T12:28:33.560Z,26.88
2023-03-26T12:39:16.526Z,22.38
2023-03-26T12:44:55.182Z,21.23
2023-03-26T12:47:59.261Z,20.38
2023-03-26T12:50:39.568Z,19.90
2023-03-26T12:54:39.756Z,21.23
2023-03-26T12:58:14.518Z,20.65
2023-03-26T13:01:34.083Z,20.10
2023-03-26T13:05:02.714Z,18.02
2023-03-26T13:08:14.949Z,15.57
2023-03-26T13:11:41.701Z,15.73
2023-03-26T13:15:13.261Z,16.45
2023-03-26T13:18:57.933Z,16.45
2023-03-26T13:22:45.048Z,16.27
2023-03-26T13:26:46.807Z,16.05
2023-03-26T13:30:55.392Z,16.80
2023-03-26T13:34:19.981Z,15.77
2023-03-26T13:37:53.517Z,16.67
2023-03-26T13:42:17.366Z,15.65
2023-03-26T13:45:04.899Z,19.70
2023-03-26T13:48:17.652Z,16.75
2023-03-26T13:51:58.442Z,15.70
2023-03-26T13:55:26.778Z,16.45
2023-03-26T14:02:36.743Z,14.77
2023-03-26T14:05:57.865Z,15.93
2023-03-26T14:09:31.161Z,14.60
2023-03-26T14:13:17.712Z,13.75
2023-03-26T14:16:39.273Z,15.95
2023-03-26T14:19:57.779Z,12.82
2023-03-26T14:23:24.283Z,12.68
2023-03-26T14:27:01.535Z,12.38
2023-03-26T14:30:17.867Z,12.77
2023-03-26T14:33:34.846Z,13.27
2023-03-26T14:36:50.307Z,14.45
2023-03-26T14:40:08.699Z,14.38
2023-03-26T14:43:15.029Z,17.73
2023-03-26T14:46:49.670Z,18.38
2023-03-26T14:50:04.990Z,16.08
2023-03-26T14:53:41.134Z,14.70
2023-03-26T14:57:13.945Z,13.77
2023-03-26T15:00:29.595Z,11.80
2023-03-26T15:03:51.133Z,13.77
2023-03-26T15:07:14.758Z,12.85
2023-03-26T15:10:39.253Z,12.07
2023-03-26T15:13:56.895Z,10.18
2023-03-26T15:17:18.781Z,9.38
2023-03-26T15:20:37.142Z,9.07
2023-03-26T15:24:29.252Z,8.88
2023-03-26T15:27:50.649Z,9.32
2023-03-26T15:31:17.197Z,7.55
2023-03-26T15:34:31.090Z,5.97
2023-03-26T15:41:08.721Z,6.47
2023-03-26T15:44:54.094Z,6.15
2023-03-26T15:48:12.058Z,6.85
2023-03-26T15:51:23.268Z,6.38
2023-03-26T15:54:31.664Z,5.75
2023-03-26T16:03:28.210Z,6.22
2023-03-26T16:06:43.906Z,6.05
2023-03-26T16:09:53.062Z,6.70
2023-03-26T16:13:22.024Z,5.85
2023-03-26T16:16:45.945Z,6.00
2023-03-26T16:20:21.640Z,4.70
2023-03-26T16:23:30.503Z,6.35
2023-03-26T16:26:46.213Z,7.03
2023-03-26T16:30:01.291Z,7.25
2023-03-26T16:33:18.501Z,6.53
2023-03-26T16:36:43.531Z,5.15
2023-03-26T16:40:25.182Z,5.80
2023-03-26T16:44:01.791Z,6.32
2023-03-26T16:47:57.706Z,6.15
2023-03-26T16:51:05.460Z,6.45
2023-03-26T16:54:25.878Z,5.75
2023-03-26T16:57:43.229Z,6.45
2023-03-26T17:01:02.470Z,5.70
2023-03-26T17:04:20.701Z,7.28
2023-03-26T17:07:53.481Z,6.55
2023-03-26T17:11:01.851Z,5.65
2023-03-26T17:14:34.953Z,5.88
2023-03-26T17:17:54.578Z,6.45
2023-03-26T17:25:24.811Z,6.55
2023-03-26T17:32:58.606Z,7.60
2023-03-26T17:36:51.196Z,6.95
2023-03-26T17:40:16.649Z,6.78
2023-03-26T17:43:46.629Z,6.40
2023-03-26T17:47:30.375Z,6.47
2023-03-26T17:51:07.234Z,7.13
2023-03-26T17:59:11.818Z,9.07
2023-03-26T18:02:48.344Z,10.85
2023-03-26T18:06:10.757Z,10.02
2023-03-26T18:09:34.772Z,8.82
2023-03-26T18:13:18.139Z,8.32
2023-03-26T18:16:59.084Z,8.38
2023-03-26T18:20:20.210Z,7.43
2023-03-26T18:23:46.652Z,8.27
2023-03-26T18:27:27.430Z,6.90
2023-03-26T18:30:38.178Z,6.18
2023-03-26T18:33:53.365Z,6.40
2023-03-26T18:37:15.545Z,5.97
2023-03-26T18:40:49.938Z,6.88
2023-03-26T18:43:55.549Z,5.30
2023-03-26T20:11:13.227Z,22.13
2023-03-26T20:18:23.429Z,18.75
2023-03-26T20:21:27.588Z,18.45
2023-03-26T20:24:32.835Z,22.75
2023-03-26T20:27:36.304Z,22.70
2023-03-26T20:30:40.246Z,23.95
2023-03-26T20:33:43.898Z,20.55
2023-03-26T20:36:48.495Z,19.25
2023-03-26T20:39:52.240Z,19.63
2023-03-26T20:42:55.861Z,19.35
2023-03-26T20:45:59.779Z,22.33
2023-03-26T20:49:03.378Z,22.13
2023-03-26T20:52:07.357Z,20.00
2023-03-26T20:55:22.177Z,22.27
2023-03-26T20:58:30.810Z,21.95
2023-03-26T21:01:35.663Z,20.75
2023-03-26T21:04:39.596Z,18.67
2023-03-26T21:07:44.176Z,15.07
2023-03-26T21:10:48.853Z,14.98
2023-03-26T21:14:06.457Z,13.32
2023-03-26T21:17:19.571Z,14.52
2023-03-26T21:20:25.109Z,14.50
2023-03-26T21:23:41.811Z,12.43
2023-03-26T21:26:57.177Z,10.73
2023-03-26T21:30:01.419Z,9.52
2023-03-26T21:33:06.267Z,7.82
2023-03-26T21:36:11.608Z,8.43
2023-03-26T21:39:16.820Z,8.75
2023-03-26T21:42:20.662Z,8.55
2023-03-26T21:45:24.949Z,8.85
2023-03-26T21:48:30.124Z,10.82
2023-03-26T21:51:34.761Z,10.90
2023-03-26T21:54:38.945Z,14.88
2023-03-26T21:58:14.123Z,14.88
2023-03-26T22:01:23.635Z,18.27
2023-03-26T22:04:46.981Z,21.38
2023-03-26T22:08:04.124Z,32.05
2023-03-26T22:11:13.349Z,39.28
2023-03-26T22:14:17.082Z,34.75
2023-03-26T22:17:20.735Z,26.48
2023-03-26T22:20:28.908Z,24.15
2023-03-26T22:29:42.998Z,14.95
2023-03-26T22:32:46.556Z,13.30
2023-03-26T22:35:50.083Z,13.00
2023-03-26T22:39:38.391Z,11.65
2023-03-26T22:43:02.819Z,13.23
2023-03-26T22:46:07.191Z,14.27
2023-03-26T22:49:10.734Z,12.40
2023-03-26T22:52:14.443Z,12.73
2023-03-26T22:57:14.291Z,13.57
2023-03-26T23:00:09.337Z,13.00
2023-03-26T23:09:08.084Z,15.60
2023-03-26T23:14:03.944Z,18.75
2023-03-26T23:26:37.755Z,37.47
2023-03-26T23:29:48.721Z,32.17
2023-03-26T23:32:53.739Z,36.53
2023-03-26T23:35:58.750Z,35.65
2023-03-26T23:39:02.479Z,31.85
2023-03-26T23:42:05.910Z,34.45
2023-03-26T23:45:09.688Z,32.33
2023-03-26T23:48:14.326Z,30.10
2023-03-26T23:51:20.834Z,30.80
2023-03-26T23:54:26.481Z,26.15
2023-03-26T23:57:33.274Z,22.00
